createdAt,value
2018-03-14T00:01:35.319Z,10.03
2018-03-14T00:04:02.804Z,10.07
2018-03-14T00:06:30.256Z,11.40
2018-03-14T00:08:57.729Z,6.27
2018-03-14T00:11:25.196Z,12.80
2018-03-14T00:13:52.681Z,10.20
2018-03-14T00:16:20.133Z,19.23
2018-03-14T00:18:47.620Z,13.23
2018-03-14T00:21:15.082Z,8.50
2018-03-14T00:23:42.554Z,10.83
2018-03-14T00:26:10.040Z,12.90
2018-03-14T00:28:37.505Z,9.90
2018-03-14T00:31:04.973Z,8.27
2018-03-14T00:33:33.212Z,2.80
2018-03-14T00:36:00.690Z,3.90
2018-03-14T00:38:28.153Z,9.40
2018-03-14T00:40:55.625Z,3.70
2018-03-14T00:43:23.868Z,5.80
2018-03-14T00:45:51.353Z,7.87
2018-03-14T00:48:18.937Z,5.90
2018-03-14T00:50:46.389Z,7.30
2018-03-14T00:53:13.873Z,7.33
2018-03-14T00:55:41.357Z,9.70
2018-03-14T00:58:08.846Z,10.60
2018-03-14T01:00:37.092Z,5.43
2018-03-14T01:03:04.565Z,8.40
2018-03-14T01:05:32.045Z,6.90
2018-03-14T01:08:00.284Z,4.57
2018-03-14T01:10:27.752Z,3.50
2018-03-14T01:12:55.226Z,3.33
2018-03-14T01:15:22.702Z,2.07
2018-03-14T01:17:50.168Z,4.43
2018-03-14T01:20:17.618Z,1.93
2018-03-14T01:22:45.096Z,3.93
2018-03-14T01:25:12.558Z,1.53
2018-03-14T01:27:40.058Z,2.63
2018-03-14T01:30:07.505Z,2.90
2018-03-14T01:32:34.978Z,2.63
2018-03-14T01:35:02.452Z,5.20
2018-03-14T01:37:30.671Z,2.60
2018-03-14T01:39:58.213Z,4.80
2018-03-14T01:42:25.701Z,2.47
2018-03-14T01:44:53.162Z,4.33
2018-03-14T01:47:20.629Z,1.80
2018-03-14T01:49:48.093Z,3.37
2018-03-14T01:52:15.576Z,2.60
2018-03-14T01:54:43.058Z,4.27
2018-03-14T01:57:10.545Z,2.23
2018-03-14T01:59:38.025Z,3.50
2018-03-14T02:02:05.496Z,1.80
2018-03-14T02:04:32.941Z,5.23
2018-03-14T02:07:00.429Z,1.70
2018-03-14T02:09:28.729Z,1.87
2018-03-14T02:11:56.184Z,2.23
2018-03-14T02:14:23.680Z,2.03
2018-03-14T02:16:51.132Z,2.30
2018-03-14T02:19:18.589Z,2.23
2018-03-14T02:21:46.061Z,2.23
2018-03-14T02:24:13.509Z,4.43
2018-03-14T02:26:40.993Z,2.77
2018-03-14T02:29:08.457Z,2.97
2018-03-14T02:31:35.936Z,6.90
2018-03-14T02:34:04.159Z,2.10
2018-03-14T02:36:43.309Z,3.03
2018-03-14T02:39:10.769Z,4.50
2018-03-14T02:41:38.226Z,3.40
2018-03-14T02:44:05.748Z,4.00
2018-03-14T02:46:33.197Z,2.90
2018-03-14T02:49:00.648Z,2.33
2018-03-14T02:51:28.132Z,2.77
2018-03-14T02:53:55.596Z,5.63
2018-03-14T02:56:23.072Z,3.20
2018-03-14T02:58:50.528Z,3.97
2018-03-14T03:01:18.004Z,9.53
2018-03-14T03:03:45.473Z,4.70
2018-03-14T03:06:12.921Z,6.03
2018-03-14T03:08:40.412Z,3.50
2018-03-14T03:11:08.640Z,3.47
2018-03-14T03:13:36.873Z,4.57
2018-03-14T03:16:04.329Z,2.40
2018-03-14T03:18:31.804Z,3.10
2018-03-14T03:20:59.249Z,5.80
2018-03-14T03:23:26.725Z,2.70
2018-03-14T03:25:54.191Z,2.47
2018-03-14T03:28:21.648Z,3.30
2018-03-14T03:30:49.114Z,2.50
2018-03-14T03:33:16.586Z,8.53
2018-03-14T03:35:44.057Z,2.53
2018-03-14T03:38:11.536Z,2.07
2018-03-14T03:40:39.789Z,2.20
2018-03-14T03:43:07.237Z,3.87
2018-03-14T03:45:34.709Z,2.97
2018-03-14T03:48:02.153Z,4.50
2018-03-14T03:50:30.404Z,9.30
2018-03-14T03:52:57.959Z,5.13
2018-03-14T03:55:25.434Z,2.37
2018-03-14T03:57:52.881Z,2.70
2018-03-14T04:00:20.391Z,2.43
2018-03-14T04:02:48.624Z,2.90
2018-03-14T04:05:16.137Z,5.23
2018-03-14T04:07:44.385Z,3.03
2018-03-14T04:10:11.861Z,4.50
2018-03-14T04:12:39.339Z,3.43
2018-03-14T04:15:06.797Z,2.83
2018-03-14T04:17:35.030Z,4.90
2018-03-14T04:20:02.493Z,3.60
2018-03-14T04:22:29.959Z,3.40
2018-03-14T04:24:57.459Z,4.20
2018-03-14T04:27:24.972Z,5.80
2018-03-14T04:29:52.458Z,5.40
2018-03-14T04:32:20.685Z,5.83
2018-03-14T04:34:48.934Z,5.00
2018-03-14T04:37:16.379Z,5.23
2018-03-14T04:39:43.853Z,6.07
2018-03-14T04:42:11.325Z,6.80
2018-03-14T04:44:39.121Z,5.20
2018-03-14T04:47:06.630Z,4.13
2018-03-14T04:49:34.085Z,4.77
2018-03-14T04:52:01.560Z,8.03
2018-03-14T04:54:29.393Z,5.10
2018-03-14T04:56:56.872Z,7.03
2018-03-14T04:59:24.413Z,4.17
2018-03-14T05:01:52.628Z,5.40
2018-03-14T05:04:20.100Z,5.43
2018-03-14T05:06:47.576Z,5.47
2018-03-14T05:09:15.030Z,6.80
2018-03-14T05:11:42.488Z,5.50
2018-03-14T05:14:10.026Z,5.67
2018-03-14T05:16:38.209Z,4.10
2018-03-14T05:19:06.424Z,9.43
2018-03-14T05:21:33.894Z,7.33
2018-03-14T05:24:01.342Z,6.07
2018-03-14T05:26:29.583Z,15.70
2018-03-14T05:28:57.061Z,10.67
2018-03-14T05:31:24.537Z,7.73
2018-03-14T05:33:52.754Z,7.37
2018-03-14T05:36:20.225Z,7.13
2018-03-14T05:38:47.707Z,9.10
2018-03-14T05:41:15.157Z,11.67
2018-03-14T05:43:42.629Z,17.53
2018-03-14T05:46:10.096Z,8.47
2018-03-14T05:48:38.336Z,13.27
2018-03-14T05:51:05.820Z,14.30
2018-03-14T05:53:33.278Z,11.30
2018-03-14T05:56:00.753Z,13.37
2018-03-14T05:58:29.044Z,11.77
2018-03-14T06:00:56.505Z,13.97
2018-03-14T06:03:23.966Z,17.13
2018-03-14T06:05:51.461Z,12.97
2018-03-14T06:08:18.994Z,15.77
2018-03-14T06:10:46.440Z,13.47
2018-03-14T06:13:13.928Z,8.83
2018-03-14T06:15:41.389Z,12.07
2018-03-14T06:18:09.665Z,13.57
2018-03-14T06:20:37.117Z,15.90
2018-03-14T06:23:04.581Z,15.30
2018-03-14T06:25:32.053Z,18.20
2018-03-14T06:27:59.664Z,16.87
2018-03-14T06:30:27.107Z,19.17
2018-03-14T06:32:54.625Z,22.60
2018-03-14T06:35:22.103Z,29.63
2018-03-14T06:37:49.582Z,24.43
2018-03-14T06:40:18.002Z,22.57
2018-03-14T06:42:45.452Z,27.00
2018-03-14T06:45:12.924Z,35.53
2018-03-14T06:47:40.405Z,34.80
2018-03-14T06:50:07.962Z,38.00
2018-03-14T06:52:35.429Z,37.07
2018-03-14T06:55:02.905Z,37.37
2018-03-14T06:57:30.384Z,39.27
2018-03-14T07:00:09.615Z,42.90
2018-03-14T07:02:48.793Z,38.13
2018-03-14T07:05:28.068Z,33.70
2018-03-14T07:07:56.398Z,39.00
2018-03-14T07:10:23.852Z,44.83
2018-03-14T07:12:51.333Z,38.33
2018-03-14T07:15:18.789Z,41.40
2018-03-14T07:17:46.269Z,48.97
2018-03-14T07:20:13.732Z,39.70
2018-03-14T07:22:41.955Z,38.30
2018-03-14T07:25:09.423Z,39.87
2018-03-14T07:27:36.915Z,36.63
2018-03-14T07:30:04.368Z,44.10
2018-03-14T07:32:31.825Z,43.40
2018-03-14T07:34:59.297Z,42.37
2018-03-14T07:37:26.785Z,39.27
2018-03-14T07:39:54.276Z,40.40
2018-03-14T07:42:21.736Z,33.97
2018-03-14T07:44:49.213Z,42.33
2018-03-14T07:47:16.689Z,37.90
2018-03-14T07:49:44.180Z,37.30
2018-03-14T07:52:11.753Z,39.87
2018-03-14T07:54:39.201Z,33.87
2018-03-14T07:57:06.689Z,36.13
2018-03-14T07:59:34.233Z,38.57
2018-03-14T08:02:01.697Z,35.57
2018-03-14T08:04:29.182Z,26.83
2018-03-14T08:06:56.669Z,33.13
2018-03-14T08:09:24.133Z,34.20
2018-03-14T08:11:51.585Z,30.73
2018-03-14T08:14:19.076Z,29.23
2018-03-14T08:16:46.550Z,25.23
2018-03-14T08:19:14.008Z,26.93
2018-03-14T08:21:41.480Z,22.80
2018-03-14T08:24:08.966Z,21.90
2018-03-14T08:26:36.422Z,17.23
2018-03-14T08:29:03.902Z,23.60
2018-03-14T08:31:32.144Z,23.93
2018-03-14T08:33:59.604Z,31.67
2018-03-14T08:36:27.067Z,13.23
2018-03-14T08:38:54.541Z,20.50
2018-03-14T08:41:22.789Z,20.43
2018-03-14T08:43:51.011Z,23.77
2018-03-14T08:46:18.486Z,21.43
2018-03-14T08:48:45.932Z,18.97
2018-03-14T08:51:13.389Z,13.50
2018-03-14T08:53:40.865Z,8.60
2018-03-14T08:56:08.308Z,9.50
2018-03-14T08:58:35.882Z,11.63
2018-03-14T09:01:03.334Z,17.27
2018-03-14T09:03:30.798Z,17.00
2018-03-14T09:05:58.271Z,17.97
2018-03-14T09:08:25.721Z,21.93
2018-03-14T09:10:53.203Z,19.80
2018-03-14T09:13:20.689Z,18.10
2018-03-14T09:15:48.140Z,20.90
2018-03-14T09:18:15.621Z,12.20
2018-03-14T09:20:43.073Z,16.87
2018-03-14T09:23:10.537Z,14.03
2018-03-14T09:25:37.990Z,17.17
2018-03-14T09:28:06.236Z,17.73
2018-03-14T09:30:33.684Z,23.90
2018-03-14T09:33:01.161Z,25.40
2018-03-14T09:35:28.605Z,19.03
2018-03-14T09:37:56.084Z,25.57
2018-03-14T09:40:23.525Z,16.50
2018-03-14T09:42:51.013Z,22.20
2018-03-14T09:45:18.495Z,30.97
2018-03-14T09:47:45.949Z,35.87
2018-03-14T09:50:13.514Z,24.80
2018-03-14T09:52:40.957Z,19.60
2018-03-14T09:55:08.428Z,12.80
2018-03-14T09:57:35.894Z,9.60
2018-03-14T10:00:03.347Z,9.97
2018-03-14T10:02:30.788Z,7.20
2018-03-14T10:04:59.022Z,22.70
2018-03-14T10:07:26.502Z,29.47
2018-03-14T10:09:53.936Z,6.00
2018-03-14T10:12:21.413Z,11.30
2018-03-14T10:14:48.865Z,11.10
2018-03-14T10:17:16.350Z,19.43
2018-03-14T10:19:45.633Z,21.20
2018-03-14T10:22:13.122Z,17.87
2018-03-14T10:24:40.569Z,16.27
2018-03-14T10:27:08.821Z,18.50
2018-03-14T10:29:36.284Z,16.57
2018-03-14T10:32:03.765Z,17.67
2018-03-14T10:34:31.977Z,9.97
2018-03-14T10:36:59.444Z,9.10
2018-03-14T10:39:26.892Z,12.37
2018-03-14T10:41:54.366Z,15.20
2018-03-14T10:44:22.582Z,17.33
2018-03-14T10:46:50.067Z,14.50
2018-03-14T10:49:17.585Z,29.63
2018-03-14T10:51:45.189Z,16.10
2018-03-14T10:54:12.669Z,16.67
2018-03-14T10:56:40.116Z,12.23
2018-03-14T10:59:07.572Z,10.47
2018-03-14T11:04:38.740Z,11.37
2018-03-14T11:07:06.213Z,19.00
2018-03-14T11:09:33.657Z,10.93
2018-03-14T11:12:01.146Z,12.17
2018-03-14T11:14:28.591Z,13.43
2018-03-14T11:16:56.038Z,17.80
2018-03-14T11:19:23.501Z,12.03
2018-03-14T11:21:50.976Z,14.90
2018-03-14T11:24:18.424Z,12.83
2018-03-14T11:26:45.992Z,16.07
2018-03-14T11:29:13.442Z,17.03
2018-03-14T11:31:40.897Z,14.10
2018-03-14T11:34:08.369Z,13.93
2018-03-14T11:36:35.828Z,14.80
2018-03-14T11:39:03.305Z,14.97
2018-03-14T11:41:30.753Z,13.00
2018-03-14T11:43:58.224Z,12.47
2018-03-14T11:46:25.704Z,14.57
2018-03-14T11:48:53.161Z,14.90
2018-03-14T11:51:20.642Z,16.63
2018-03-14T11:53:48.111Z,9.07
2018-03-14T11:56:15.592Z,14.60
2018-03-14T11:58:43.074Z,10.80
2018-03-14T12:01:11.305Z,8.47
2018-03-14T12:03:38.760Z,10.20
2018-03-14T12:06:06.289Z,11.80
2018-03-14T12:08:33.700Z,9.60
2018-03-14T12:11:01.179Z,9.00
2018-03-14T12:13:29.393Z,6.43
2018-03-14T12:15:56.865Z,5.40
2018-03-14T12:18:24.313Z,9.57
2018-03-14T12:20:51.789Z,7.27
2018-03-14T12:23:19.249Z,7.83
2018-03-14T12:25:46.713Z,8.20
2018-03-14T12:28:14.220Z,12.83
2018-03-14T12:30:42.440Z,10.40
2018-03-14T12:33:09.916Z,6.87
2018-03-14T12:35:37.410Z,10.37
2018-03-14T12:38:04.874Z,8.87
2018-03-14T12:40:33.087Z,10.53
2018-03-14T12:43:00.734Z,12.23
2018-03-14T12:45:28.194Z,11.50
2018-03-14T12:47:55.694Z,7.73
2018-03-14T12:50:23.164Z,8.73
2018-03-14T12:52:50.608Z,9.53
2018-03-14T12:55:18.086Z,8.23
2018-03-14T12:57:46.329Z,8.63
2018-03-14T13:00:13.821Z,8.57
2018-03-14T13:02:42.039Z,12.03
2018-03-14T13:05:09.516Z,11.47
2018-03-14T13:07:37.772Z,10.70
2018-03-14T13:10:05.270Z,15.93
2018-03-14T13:12:32.728Z,15.17
2018-03-14T13:15:00.208Z,13.40
2018-03-14T13:17:28.420Z,15.13
2018-03-14T13:19:55.966Z,17.83
2018-03-14T13:22:23.413Z,11.03
2018-03-14T13:24:51.655Z,14.30
2018-03-14T13:27:19.112Z,11.50
2018-03-14T13:29:46.593Z,10.50
2018-03-14T13:32:14.837Z,12.60
2018-03-14T13:34:42.293Z,21.73
2018-03-14T13:37:09.790Z,12.07
2018-03-14T13:39:38.025Z,12.10
2018-03-14T13:42:05.490Z,12.30
2018-03-14T13:44:32.960Z,11.37
2018-03-14T13:47:00.547Z,16.17
2018-03-14T13:49:28.812Z,12.17
2018-03-14T13:51:57.057Z,13.20
2018-03-14T13:54:24.533Z,12.97
2018-03-14T13:56:51.996Z,13.47
2018-03-14T13:59:19.643Z,12.80
2018-03-14T14:01:47.169Z,12.80
2018-03-14T14:04:14.656Z,13.17
2018-03-14T14:06:42.139Z,13.43
2018-03-14T14:09:09.590Z,17.40
2018-03-14T14:11:37.058Z,12.17
2018-03-14T14:14:04.534Z,10.47
2018-03-14T14:16:32.761Z,10.30
2018-03-14T14:19:00.242Z,10.40
2018-03-14T14:21:27.719Z,10.27
2018-03-14T14:23:55.194Z,12.50
2018-03-14T14:26:22.669Z,10.30
2018-03-14T14:28:50.158Z,11.40
2018-03-14T14:31:17.637Z,10.90
2018-03-14T14:33:45.092Z,13.17
2018-03-14T14:36:12.565Z,10.57
2018-03-14T14:38:40.806Z,12.13
2018-03-14T14:41:08.261Z,16.43
2018-03-14T14:43:35.776Z,15.00
2018-03-14T14:46:03.256Z,12.90
2018-03-14T14:48:30.718Z,14.73
2018-03-14T14:50:58.198Z,14.20
2018-03-14T14:53:25.654Z,18.47
2018-03-14T14:55:53.137Z,13.20
2018-03-14T14:58:20.601Z,13.67
2018-03-14T15:00:48.078Z,14.33
2018-03-14T15:03:15.557Z,14.83
2018-03-14T15:05:43.140Z,13.67
2018-03-14T15:08:10.620Z,14.13
2018-03-14T15:10:38.077Z,13.73
2018-03-14T15:13:05.717Z,14.83
2018-03-14T15:15:34.240Z,11.90
2018-03-14T15:18:01.889Z,16.63
2018-03-14T15:20:29.647Z,16.07
2018-03-14T15:22:57.133Z,15.60
2018-03-14T15:25:25.408Z,13.90
2018-03-14T15:27:53.772Z,13.07
2018-03-14T15:30:21.184Z,12.60
2018-03-14T15:32:49.355Z,11.30
2018-03-14T15:35:17.041Z,13.00
2018-03-14T15:37:46.116Z,12.47
2018-03-14T15:40:13.744Z,14.27
2018-03-14T15:42:41.189Z,13.80
2018-03-14T15:45:08.945Z,15.07
2018-03-14T15:47:36.561Z,18.50
2018-03-14T15:50:04.168Z,15.33
2018-03-14T15:52:31.673Z,14.80
2018-03-14T15:54:59.149Z,14.13
2018-03-14T15:57:26.869Z,18.70
2018-03-14T15:59:54.402Z,15.50
2018-03-14T16:02:21.884Z,14.27
2018-03-14T16:04:49.374Z,14.43
2018-03-14T16:07:16.833Z,18.10
2018-03-14T16:09:44.357Z,17.63
2018-03-14T16:12:12.601Z,13.13
2018-03-14T16:14:40.109Z,15.93
2018-03-14T16:17:08.329Z,13.10
2018-03-14T16:19:36.541Z,10.47
2018-03-14T16:22:04.018Z,11.10
2018-03-14T16:24:31.466Z,9.63
2018-03-14T16:26:58.920Z,9.93
2018-03-14T16:29:26.414Z,13.23
2018-03-14T16:31:53.925Z,12.00
2018-03-14T16:34:21.411Z,11.20
2018-03-14T16:36:49.633Z,11.77
2018-03-14T16:39:17.172Z,13.67
2018-03-14T16:41:44.652Z,11.60
2018-03-14T16:44:12.152Z,11.03
2018-03-14T16:46:40.425Z,9.40
2018-03-14T16:49:07.933Z,10.97
2018-03-14T16:51:35.392Z,5.90
2018-03-14T16:54:02.840Z,9.27
2018-03-14T16:56:30.295Z,46.20
2018-03-14T16:58:57.785Z,21.53
2018-03-14T17:01:25.266Z,16.30
2018-03-14T17:03:52.745Z,7.30
2018-03-14T17:06:21.003Z,6.53
2018-03-14T17:08:49.328Z,7.73
2018-03-14T17:11:16.814Z,5.00
2018-03-14T17:13:44.316Z,5.90
2018-03-14T17:16:12.533Z,7.50
2018-03-14T17:18:40.013Z,10.87
2018-03-14T17:21:07.538Z,5.67
2018-03-14T17:23:35.009Z,6.13
2018-03-14T17:26:02.486Z,6.93
2018-03-14T17:28:29.925Z,4.50
2018-03-14T17:30:57.470Z,5.57
2018-03-14T17:33:24.945Z,5.83
2018-03-14T17:35:53.170Z,8.00
2018-03-14T17:38:20.637Z,3.67
2018-03-14T17:40:48.856Z,5.60
2018-03-14T17:43:16.333Z,4.30
2018-03-14T17:45:43.813Z,6.33
2018-03-14T17:48:11.284Z,10.83
2018-03-14T17:50:39.535Z,4.87
2018-03-14T17:53:06.987Z,6.77
2018-03-14T17:55:34.472Z,7.47
2018-03-14T17:58:02.717Z,6.10
2018-03-14T18:00:30.169Z,6.20
2018-03-14T18:02:57.636Z,7.57
2018-03-14T18:05:25.928Z,7.13
2018-03-14T18:07:53.401Z,8.47
2018-03-14T18:10:21.759Z,4.93
2018-03-14T18:12:49.344Z,9.97
2018-03-14T18:15:17.667Z,6.50
2018-03-14T18:17:45.108Z,7.40
2018-03-14T18:20:12.580Z,5.33
2018-03-14T18:22:40.148Z,6.63
2018-03-14T18:25:07.616Z,6.57
2018-03-14T18:27:35.104Z,8.97
2018-03-14T18:30:02.561Z,7.77
2018-03-14T18:32:30.021Z,7.87
2018-03-14T18:34:58.325Z,8.60
2018-03-14T18:37:25.872Z,7.83
2018-03-14T18:39:53.352Z,8.90
2018-03-14T18:42:20.833Z,5.53
2018-03-14T18:44:48.398Z,9.03
2018-03-14T18:47:15.873Z,8.87
2018-03-14T18:49:43.395Z,5.30
2018-03-14T18:52:10.869Z,8.87
2018-03-14T18:54:38.365Z,9.93
2018-03-14T18:57:05.809Z,7.37
2018-03-14T18:59:33.293Z,7.90
2018-03-14T19:02:01.518Z,5.53
2018-03-14T19:04:28.977Z,5.13
2018-03-14T19:06:56.452Z,14.50
2018-03-14T19:09:23.903Z,5.07
2018-03-14T19:11:51.364Z,5.10
2018-03-14T19:14:19.572Z,4.90
2018-03-14T19:16:47.289Z,5.27
2018-03-14T19:19:14.895Z,6.50
2018-03-14T19:21:42.456Z,5.10
2018-03-14T19:24:10.076Z,4.17
2018-03-14T19:26:37.591Z,7.60
2018-03-14T19:29:05.256Z,7.53
2018-03-14T19:31:32.924Z,5.30
2018-03-14T19:34:00.429Z,13.87
2018-03-14T19:36:28.171Z,6.47
2018-03-14T19:38:55.793Z,6.40
2018-03-14T19:41:23.315Z,8.33
2018-03-14T19:43:50.984Z,6.50
2018-03-14T19:46:18.557Z,9.67
2018-03-14T19:48:47.056Z,10.00
2018-03-14T19:51:15.479Z,8.07
2018-03-14T19:53:43.097Z,7.77
2018-03-14T19:56:10.633Z,10.50
2018-03-14T19:58:39.340Z,11.77
2018-03-14T20:01:07.882Z,5.60
2018-03-14T20:03:35.699Z,8.23
2018-03-14T20:06:03.172Z,9.07
2018-03-14T20:08:30.922Z,16.80
2018-03-14T20:10:58.480Z,13.30
2018-03-14T20:13:26.168Z,12.60
2018-03-14T20:15:53.672Z,7.30
2018-03-14T20:18:22.045Z,11.00
2018-03-14T20:20:49.896Z,8.33
2018-03-14T20:23:17.456Z,13.50
2018-03-14T20:25:45.134Z,13.77
2018-03-14T20:28:13.560Z,11.27
2018-03-14T20:30:41.234Z,13.73
2018-03-14T20:33:08.856Z,16.33
2018-03-14T20:35:36.328Z,15.47
2018-03-14T20:38:03.779Z,14.10
2018-03-14T20:40:31.264Z,15.87
2018-03-14T20:42:58.943Z,19.03
2018-03-14T20:45:27.235Z,17.67
2018-03-14T20:47:55.958Z,12.20
2018-03-14T20:50:23.492Z,18.27
2018-03-14T20:52:51.292Z,18.27
2018-03-14T20:55:19.904Z,22.40
2018-03-14T20:57:47.780Z,21.37
2018-03-14T21:00:15.616Z,16.83
2018-03-14T21:02:43.129Z,18.63
2018-03-14T21:05:10.604Z,16.87
2018-03-14T21:07:38.065Z,18.20
2018-03-14T21:10:05.520Z,17.87
2018-03-14T21:12:32.999Z,16.83
2018-03-14T21:15:00.457Z,18.67
2018-03-14T21:17:27.929Z,19.00
2018-03-14T21:19:55.393Z,19.63
2018-03-14T21:22:23.680Z,18.93
2018-03-14T21:24:51.150Z,17.80
2018-03-14T21:27:18.619Z,20.23
2018-03-14T21:29:46.090Z,16.57
2018-03-14T21:32:13.565Z,13.73
2018-03-14T21:34:41.025Z,21.40
2018-03-14T21:37:08.512Z,17.47
2018-03-14T21:39:35.965Z,17.83
2018-03-14T21:42:03.423Z,18.63
2018-03-14T21:44:30.901Z,17.87
2018-03-14T21:46:58.508Z,23.70
2018-03-14T21:49:26.512Z,21.20
2018-03-14T21:51:54.922Z,20.70
2018-03-14T21:54:22.521Z,16.97
2018-03-14T21:56:49.970Z,9.80
2018-03-14T21:59:18.205Z,20.70
2018-03-14T22:01:46.460Z,21.90
2018-03-14T22:04:13.903Z,11.60
2018-03-14T22:06:41.368Z,20.17
2018-03-14T22:09:08.841Z,17.33
2018-03-14T22:11:36.342Z,26.80
2018-03-14T22:14:03.782Z,21.87
2018-03-14T22:16:32.002Z,23.73
2018-03-14T22:18:59.501Z,24.40
2018-03-14T22:21:27.744Z,22.33
2018-03-14T22:23:55.205Z,20.37
2018-03-14T22:26:22.664Z,17.67
2018-03-14T22:28:50.168Z,25.30
2018-03-14T22:31:17.638Z,20.13
2018-03-14T22:33:45.126Z,26.17
2018-03-14T22:36:12.614Z,24.03
2018-03-14T22:38:40.080Z,14.23
2018-03-14T22:41:07.532Z,20.40
2018-03-14T22:43:35.010Z,18.40
2018-03-14T22:46:02.471Z,15.10
2018-03-14T22:48:30.743Z,11.07
2018-03-14T22:50:58.978Z,18.13
2018-03-14T22:53:26.443Z,21.93
2018-03-14T22:55:53.915Z,15.47
2018-03-14T22:58:21.369Z,17.13
2018-03-14T23:00:48.856Z,18.63
2018-03-14T23:03:16.306Z,21.90
2018-03-14T23:05:43.785Z,20.77
2018-03-14T23:08:11.239Z,19.47
2018-03-14T23:10:38.718Z,18.50
2018-03-14T23:13:06.376Z,22.33
2018-03-14T23:15:33.836Z,17.77
2018-03-14T23:18:01.310Z,20.43
2018-03-14T23:20:28.766Z,17.27
2018-03-14T23:22:56.241Z,19.77
2018-03-14T23:25:23.711Z,19.20
2018-03-14T23:27:51.188Z,19.20
2018-03-14T23:30:19.409Z,19.77
2018-03-14T23:32:46.901Z,19.30
2018-03-14T23:35:14.356Z,19.23
2018-03-14T23:37:41.840Z,21.87
2018-03-14T23:40:10.145Z,22.20
2018-03-14T23:42:37.597Z,17.43
2018-03-14T23:45:05.049Z,18.00
2018-03-14T23:47:32.518Z,10.00
2018-03-14T23:49:59.969Z,20.00
2018-03-14T23:52:27.449Z,20.23
2018-03-14T23:54:54.929Z,16.40
2018-03-14T23:57:22.381Z,18.83
2018-03-14T23:59:49.861Z,21.20
